TimeEST,TemperatureF,Dew PointF,Humidity,Sea Level PressureIn,VisibilityMPH,Wind Direction,Wind SpeedMPH,Gust SpeedMPH,PrecipitationIn,Events,Conditions,WindDirDegrees,DateUTC
12:53 AM,42.1,30.9,65,29.92,10.0,SW,13.8,-,N/A,,Clear,220,2013-01-20 05:53:00
1:53 AM,41.0,30.9,67,29.89,10.0,SW,11.5,-,N/A,,Clear,220,2013-01-20 06:53:00
2:53 AM,41.0,30.9,67,29.87,10.0,SW,13.8,-,N/A,,Clear,220,2013-01-20 07:53:00
3:53 AM,41.0,30.0,65,29.85,10.0,SW,12.7,-,N/A,,Clear,230,2013-01-20 08:53:00
4:53 AM,41.0,30.0,65,29.82,10.0,SW,9.2,-,N/A,,Clear,230,2013-01-20 09:53:00
5:53 AM,41.0,30.0,65,29.79,10.0,SW,10.4,-,N/A,,Clear,230,2013-01-20 10:53:00
6:53 AM,41.0,30.9,67,29.78,10.0,SW,9.2,-,N/A,,Clear,230,2013-01-20 11:53:00
7:53 AM,42.1,30.0,62,29.76,10.0,SW,12.7,-,N/A,,Clear,230,2013-01-20 12:53:00
8:53 AM,45.0,30.0,56,29.77,10.0,WSW,11.5,-,N/A,,Clear,240,2013-01-20 13:53:00
9:53 AM,48.9,28.9,46,29.78,10.0,WSW,15.0,19.6,N/A,,Clear,240,2013-01-20 14:53:00
10:53 AM,52.0,28.0,40,29.75,10.0,WSW,16.1,26.5,N/A,,Clear,240,2013-01-20 15:53:00
11:53 AM,54.0,28.0,37,29.71,10.0,West,21.9,35.7,N/A,,Clear,260,2013-01-20 16:53:00
12:53 PM,54.0,26.1,34,29.69,10.0,West,27.6,39.1,N/A,,Partly Cloudy,270,2013-01-20 17:53:00
1:53 PM,54.0,21.9,29,29.69,10.0,West,24.2,36.8,N/A,,Clear,280,2013-01-20 18:53:00
2:53 PM,53.1,21.0,29,29.72,10.0,West,23.0,32.2,N/A,,Clear,280,2013-01-20 19:53:00
3:53 PM,51.1,9.0,18,29.75,10.0,WNW,18.4,40.3,N/A,,Clear,290,2013-01-20 20:53:00
4:53 PM,48.9,7.0,18,29.80,10.0,West,25.3,35.7,N/A,,Clear,280,2013-01-20 21:53:00
5:53 PM,46.0,8.1,21,29.85,10.0,WNW,17.3,31.1,N/A,,Clear,290,2013-01-20 22:53:00
6:53 PM,42.1,16.0,35,29.89,10.0,NW,13.8,19.6,N/A,,Clear,320,2013-01-20 23:53:00
7:53 PM,39.0,16.0,39,29.93,10.0,NW,15.0,21.9,N/A,,Clear,320,2013-01-21 00:53:00
8:53 PM,36.0,10.9,36,29.96,10.0,NNW,12.7,21.9,N/A,,Clear,330,2013-01-21 01:53:00
9:53 PM,34.0,10.0,37,29.99,10.0,NW,8.1,23.0,N/A,,Clear,310,2013-01-21 02:53:00
10:53 PM,32.0,10.9,42,30.01,10.0,NNW,12.7,24.2,N/A,,Clear,330,2013-01-21 03:53:00
11:53 PM,30.9,10.0,42,30.04,10.0,NNW,11.5,17.3,N/A,,Clear,330,2013-01-21 04:53:00